map of TER home
TER - Airport
Location
City:  Terceira, Região Autónoma dos Açores (Azores), Portugal
Name:Aeroporto das Lajes
ICAO:LPLA
IATA:TER

Details
Type:Airport (Aerodrome, Airfield)
Use:Public/Civil, Military, International (customs port of entry)
Latitude:38°45'43"N (38.761842)
Longitude:27°05'27"W (-27.090796)
Datum:WGS 1984
Elevation:180 ft (55 m)
Variation:8.93°W (WMM2015 magnetic declination)
0.15° annual change
Runways:1
Longest:10870 × 197 ft (3313 × 60 m), paved

Time
Time Zone:UTC-1 (DST+0)
Local Time:

Weather
METAR:LPLA 131800Z /////KT 9999 VCSH FEW014 BKN023 18/16 Q1032
TAF:LPLA 131701Z 1318/1418 25008KT 9999 FEW015 BKN025= TAF LPPD 131700Z 1318/1418 27008KT 9999 FEW006 SCT015 PROB40
TEMPO 1318/1418 5000 -RA BR FEW002 BKN005

Related Locations
Nearby:
Farthest:XMC: 12249 mi / 19713 km
Mallacoota, Vic, AU

Find:

   beyond  
but within

Other Information
Maps:
NOTAMs:
Links:
Sources:

  
flag of Portugal
flag of Região Autónoma dos Açores (Azores)
  

Airport Diagram

Airport diagram for TER

Larger airport diagram (OBSOLETE) from NGA

Sectional Chart

Flight Planning
at skyvector.com

Satellite Image

Google Maps Satellite view

 

Copyright © 2004-2017 Karl L. Swartz. All rights reserved.
The Great Circle Mapper name and logo are trademarks of the Great Circle Mapper.
All other trademarks mentioned herein belong to their respective owners.
Please see credits for attibutions and further copyright information.

  Follow gcmap on Facebook Follow gcmap on Twitter Follow gcmap on Google+ GCmap on LinkedIn

hCard Microformat

Geo Microformat